createdAt,value
2022-08-18T00:01:49.505Z,91.30
2022-08-18T00:04:48.561Z,91.60
2022-08-18T00:07:36.338Z,91.50
2022-08-18T00:10:22.837Z,91.60
2022-08-18T00:13:09.462Z,91.70
2022-08-18T00:15:55.938Z,92.00
2022-08-18T00:18:43.719Z,92.00
2022-08-18T00:21:30.457Z,92.00
2022-08-18T00:24:16.657Z,92.00
2022-08-18T00:27:03.411Z,92.10
2022-08-18T00:29:50.010Z,92.30
2022-08-18T00:32:39.319Z,92.40
2022-08-18T00:35:30.287Z,92.40
2022-08-18T00:38:24.755Z,92.10
2022-08-18T00:41:12.048Z,92.10
2022-08-18T00:43:59.371Z,91.90
2022-08-18T00:46:45.787Z,92.00
2022-08-18T00:49:32.211Z,92.00
2022-08-18T00:52:21.095Z,92.00
2022-08-18T00:55:08.413Z,92.30
2022-08-18T00:57:58.544Z,92.60
2022-08-18T01:00:46.261Z,92.80
2022-08-18T01:03:35.211Z,92.90
2022-08-18T01:06:28.683Z,93.10
2022-08-18T01:09:18.556Z,93.10
2022-08-18T01:12:39.419Z,93.00
2022-08-18T01:15:27.851Z,93.10
2022-08-18T01:18:34.086Z,93.40
2022-08-18T01:21:42.442Z,93.40
2022-08-18T01:24:52.297Z,93.60
2022-08-18T01:27:41.816Z,93.50
2022-08-18T01:30:28.096Z,93.40
2022-08-18T01:33:14.384Z,93.30
2022-08-18T01:36:04.333Z,93.30
2022-08-18T01:38:52.977Z,93.30
2022-08-18T01:41:41.867Z,93.30
2022-08-18T01:44:28.443Z,93.40
2022-08-18T01:47:17.061Z,93.40
2022-08-18T01:50:05.796Z,93.60
2022-08-18T01:52:53.425Z,93.70
2022-08-18T01:55:44.416Z,93.80
2022-08-18T01:58:32.462Z,93.80
2022-08-18T02:01:19.087Z,93.80
2022-08-18T02:04:33.273Z,93.70
2022-08-18T02:07:15.334Z,93.60
2022-08-18T02:10:02.020Z,93.80
2022-08-18T02:12:49.001Z,94.00
2022-08-18T02:15:37.100Z,94.00
2022-08-18T02:18:47.795Z,93.90
2022-08-18T02:21:33.834Z,94.00
2022-08-18T02:24:20.764Z,93.90
2022-08-18T02:27:08.210Z,93.90
2022-08-18T02:29:54.672Z,94.00
2022-08-18T02:32:42.510Z,93.80
2022-08-18T02:35:29.153Z,93.90
2022-08-18T02:38:17.347Z,93.90
2022-08-18T02:41:06.509Z,93.90
2022-08-18T02:43:52.938Z,94.00
2022-08-18T02:46:40.735Z,94.00
2022-08-18T02:49:29.198Z,93.90
2022-08-18T02:52:17.288Z,94.00
2022-08-18T02:55:04.710Z,94.00
2022-08-18T02:57:52.035Z,94.10
2022-08-18T03:00:39.018Z,94.20
2022-08-18T03:03:25.553Z,94.20
2022-08-18T03:06:13.401Z,94.20
2022-08-18T03:08:59.857Z,94.30
2022-08-18T03:11:47.358Z,94.40
2022-08-18T03:14:33.790Z,94.50
2022-08-18T03:17:20.082Z,94.60
2022-08-18T03:20:08.007Z,94.30
2022-08-18T03:22:56.621Z,94.40
2022-08-18T03:25:48.380Z,94.20
2022-08-18T03:28:35.058Z,94.20
2022-08-18T03:31:23.654Z,94.30
2022-08-18T03:34:11.022Z,94.20
2022-08-18T03:36:57.495Z,94.20
2022-08-18T03:39:45.503Z,94.20
2022-08-18T03:42:32.242Z,94.30
2022-08-18T03:45:18.962Z,94.20
2022-08-18T03:48:05.893Z,94.30
2022-08-18T03:50:52.502Z,94.30
2022-08-18T03:53:39.530Z,94.10
2022-08-18T03:56:33.067Z,94.00
2022-08-18T03:59:22.723Z,94.20
2022-08-18T04:02:09.493Z,94.20
2022-08-18T04:04:56.228Z,94.20
2022-08-18T04:07:43.091Z,94.30
2022-08-18T04:10:31.048Z,94.40
2022-08-18T04:13:19.014Z,94.30
2022-08-18T04:16:06.071Z,94.10
2022-08-18T04:18:53.019Z,93.80
2022-08-18T04:21:42.216Z,93.60
2022-08-18T04:24:31.248Z,93.70
2022-08-18T04:27:20.023Z,93.70
2022-08-18T04:30:09.577Z,93.70
2022-08-18T04:32:55.837Z,93.50
2022-08-18T04:35:42.175Z,93.60
2022-08-18T04:38:28.545Z,93.60
2022-08-18T04:41:15.403Z,93.70
2022-08-18T04:44:05.587Z,94.00
2022-08-18T04:46:55.105Z,94.20
2022-08-18T04:49:44.520Z,94.20
2022-08-18T04:52:48.515Z,94.50
2022-08-18T04:55:35.025Z,94.60
2022-08-18T04:58:21.941Z,94.90
2022-08-18T05:01:09.992Z,94.90
2022-08-18T05:03:59.626Z,95.20
2022-08-18T05:06:47.267Z,95.80
2022-08-18T05:09:33.686Z,95.90
2022-08-18T05:12:28.845Z,96.00
2022-08-18T05:15:15.183Z,96.20
2022-08-18T05:18:01.442Z,96.40
2022-08-18T05:20:49.885Z,96.50
2022-08-18T05:23:36.327Z,96.50
2022-08-18T05:26:22.668Z,96.80
2022-08-18T05:29:18.991Z,97.10
2022-08-18T05:32:07.804Z,96.90
2022-08-18T05:34:54.677Z,97.20
2022-08-18T05:37:53.384Z,97.10
2022-08-18T05:40:40.272Z,97.40
2022-08-18T05:43:26.898Z,97.10
2022-08-18T05:46:13.292Z,97.50
2022-08-18T05:49:01.879Z,97.30
2022-08-18T05:51:50.273Z,97.40
2022-08-18T05:54:59.385Z,97.50
2022-08-18T05:57:51.410Z,97.90
2022-08-18T06:00:38.356Z,97.80
2022-08-18T06:03:27.991Z,97.60
2022-08-18T06:06:20.795Z,98.00
2022-08-18T06:09:14.923Z,98.30
2022-08-18T06:12:14.044Z,98.30
2022-08-18T06:15:09.256Z,99.00
2022-08-18T06:18:27.326Z,98.80
2022-08-18T06:21:38.316Z,99.10
2022-08-18T06:24:32.514Z,99.00
2022-08-18T06:27:29.744Z,99.00
2022-08-18T06:30:21.267Z,98.90
2022-08-18T06:33:17.372Z,99.00
2022-08-18T06:36:10.437Z,99.40
2022-08-18T06:39:06.610Z,99.10
2022-08-18T06:41:54.057Z,98.80
2022-08-18T06:44:46.079Z,99.30
2022-08-18T06:47:40.816Z,99.50
2022-08-18T06:50:33.472Z,99.00
2022-08-18T06:53:27.784Z,99.10
2022-08-18T06:56:26.479Z,98.80
2022-08-18T06:59:24.934Z,98.80
2022-08-18T07:02:21.807Z,99.90
2022-08-18T07:05:19.166Z,99.90
2022-08-18T07:08:16.175Z,98.40
2022-08-18T07:11:15.283Z,98.40
2022-08-18T07:14:17.178Z,98.40
2022-08-18T07:17:09.035Z,98.40
2022-08-18T07:19:59.703Z,98.20
2022-08-18T07:22:54.656Z,98.20
2022-08-18T07:25:43.590Z,98.70
2022-08-18T07:28:32.691Z,98.30
2022-08-18T07:31:40.946Z,98.70
2022-08-18T07:34:37.389Z,98.40
2022-08-18T07:37:30.376Z,98.60
2022-08-18T07:40:24.793Z,99.00
2022-08-18T07:43:18.564Z,98.50
2022-08-18T07:46:11.809Z,98.90
2022-08-18T07:48:59.389Z,98.90
2022-08-18T07:51:53.138Z,99.00
2022-08-18T07:54:51.487Z,99.00
2022-08-18T07:57:45.979Z,99.20
2022-08-18T08:00:58.316Z,98.80
2022-08-18T08:03:55.538Z,99.00
2022-08-18T08:07:06.444Z,98.70
2022-08-18T08:10:02.827Z,98.40
2022-08-18T08:13:08.758Z,98.90
2022-08-18T08:16:03.617Z,99.10
2022-08-18T08:18:59.674Z,99.50
2022-08-18T08:21:56.765Z,99.80
2022-08-18T08:24:50.584Z,99.90
2022-08-18T08:27:54.261Z,99.90
2022-08-18T08:30:48.455Z,99.90
2022-08-18T08:33:42.947Z,99.90
2022-08-18T08:36:35.412Z,99.90
2022-08-18T08:39:28.683Z,99.90
2022-08-18T08:42:31.678Z,99.90
2022-08-18T08:45:25.171Z,99.90
2022-08-18T08:48:18.611Z,99.90
2022-08-18T08:51:22.158Z,99.90
2022-08-18T08:54:16.156Z,99.90
2022-08-18T08:57:04.135Z,99.90
2022-08-18T08:59:52.711Z,99.90
2022-08-18T09:02:55.602Z,99.90
2022-08-18T09:05:56.184Z,99.90
2022-08-18T09:09:00.766Z,99.90
2022-08-18T09:12:06.093Z,99.90
2022-08-18T09:15:17.651Z,99.90
2022-08-18T09:18:30.070Z,99.90
2022-08-18T09:21:33.498Z,99.90
2022-08-18T09:24:26.715Z,99.90
2022-08-18T09:27:24.315Z,99.90
2022-08-18T09:30:40.258Z,99.90
2022-08-18T09:33:49.125Z,99.90
2022-08-18T09:36:46.058Z,99.90
2022-08-18T09:43:13.139Z,99.90
2022-08-18T09:46:08.707Z,99.90
2022-08-18T09:49:47.598Z,99.90
2022-08-18T09:52:58.266Z,99.90
2022-08-18T09:56:01.427Z,99.90
2022-08-18T09:58:55.801Z,99.90
2022-08-18T10:01:42.516Z,99.90
2022-08-18T10:04:35.394Z,99.50
2022-08-18T10:07:43.196Z,99.20
2022-08-18T10:11:02.368Z,98.60
2022-08-18T10:13:51.062Z,98.20
2022-08-18T10:20:04.916Z,97.90
2022-08-18T10:22:51.704Z,97.60
2022-08-18T10:25:41.903Z,97.50
2022-08-18T10:28:53.550Z,97.10
2022-08-18T10:32:14.024Z,96.80
2022-08-18T10:35:02.235Z,96.70
2022-08-18T10:37:50.838Z,96.70
2022-08-18T10:40:38.807Z,96.30
2022-08-18T10:43:55.187Z,96.10
2022-08-18T10:46:46.731Z,96.00
2022-08-18T10:49:34.540Z,95.70
2022-08-18T10:53:24.118Z,95.40
2022-08-18T10:56:04.109Z,95.20
2022-08-18T10:59:06.813Z,94.70
2022-08-18T11:02:13.265Z,94.50
2022-08-18T11:05:07.840Z,94.20
2022-08-18T11:08:01.771Z,94.40
2022-08-18T11:11:27.708Z,94.00
2022-08-18T11:14:08.246Z,94.20
2022-08-18T11:17:06.914Z,94.30
2022-08-18T11:19:55.383Z,94.90
2022-08-18T11:22:51.734Z,95.10
2022-08-18T11:25:41.994Z,94.70
2022-08-18T11:28:31.807Z,94.60
2022-08-18T11:31:19.160Z,94.90
2022-08-18T11:34:18.367Z,95.20
2022-08-18T11:37:09.850Z,95.40
2022-08-18T11:39:58.905Z,95.70
2022-08-18T11:42:55.804Z,95.60
2022-08-18T11:45:54.074Z,95.70
2022-08-18T11:48:52.144Z,95.40
2022-08-18T11:51:56.555Z,95.50
2022-08-18T11:54:50.807Z,95.50
2022-08-18T11:57:58.659Z,95.60
2022-08-18T12:01:01.640Z,95.50
2022-08-18T12:03:50.127Z,95.50
2022-08-18T12:06:38.180Z,95.90
2022-08-18T12:12:53.945Z,95.70
2022-08-18T12:15:46.570Z,95.80
2022-08-18T12:18:33.781Z,95.40
2022-08-18T12:21:21.358Z,95.40
2022-08-18T12:24:14.841Z,95.30
2022-08-18T12:27:01.521Z,95.20
2022-08-18T12:33:17.603Z,95.00
2022-08-18T12:36:12.087Z,95.40
2022-08-18T12:39:00.168Z,95.50
2022-08-18T12:41:47.522Z,95.40
2022-08-18T12:44:34.234Z,95.50
2022-08-18T12:47:24.972Z,95.90
2022-08-18T12:50:17.555Z,96.20
2022-08-18T12:53:04.501Z,96.30
2022-08-18T12:55:51.252Z,96.30
2022-08-18T12:58:37.493Z,96.80
2022-08-18T13:01:27.512Z,96.90
2022-08-18T13:07:23.047Z,96.90
2022-08-18T13:10:10.148Z,97.00
2022-08-18T13:13:18.675Z,97.10
2022-08-18T13:16:08.012Z,97.30
2022-08-18T13:18:54.649Z,97.50
2022-08-18T13:21:43.172Z,96.90
2022-08-18T13:24:29.642Z,97.30
2022-08-18T13:27:18.534Z,97.10
2022-08-18T13:30:26.188Z,97.20
2022-08-18T13:33:34.632Z,97.90
2022-08-18T13:36:28.931Z,97.60
2022-08-18T13:39:18.881Z,98.20
2022-08-18T13:42:26.604Z,98.40
2022-08-18T13:45:24.627Z,98.40
2022-08-18T13:48:12.330Z,98.70
2022-08-18T13:51:01.766Z,98.70
2022-08-18T13:54:17.384Z,98.80
2022-08-18T13:56:56.143Z,99.00
2022-08-18T13:59:46.480Z,99.10
2022-08-18T14:02:33.421Z,99.30
2022-08-18T14:05:20.142Z,99.60
2022-08-18T14:08:07.142Z,99.90
2022-08-18T14:10:58.307Z,99.90
2022-08-18T14:13:46.842Z,99.90
2022-08-18T14:16:36.043Z,99.90
2022-08-18T14:19:46.268Z,99.90
2022-08-18T14:22:50.300Z,99.90
2022-08-18T14:25:54.450Z,99.90
2022-08-18T14:28:42.951Z,99.90
2022-08-18T14:31:30.786Z,99.90
2022-08-18T14:34:21.637Z,99.90
2022-08-18T14:37:14.906Z,99.90
2022-08-18T14:40:01.772Z,99.90
2022-08-18T14:42:54.993Z,99.90
2022-08-18T14:45:45.761Z,99.90
2022-08-18T14:48:34.548Z,99.90
2022-08-18T14:51:23.449Z,99.90
2022-08-18T14:54:17.894Z,99.90
2022-08-18T14:57:09.110Z,99.90
2022-08-18T14:59:55.889Z,99.90
2022-08-18T15:02:44.061Z,99.90
2022-08-18T15:05:34.362Z,99.90
2022-08-18T15:11:12.710Z,99.90
2022-08-18T15:14:01.445Z,99.90
2022-08-18T15:16:48.684Z,99.90
2022-08-18T15:19:58.577Z,99.90
2022-08-18T15:23:04.026Z,99.90
2022-08-18T15:25:51.286Z,99.90
2022-08-18T15:28:38.876Z,99.90
2022-08-18T15:34:46.782Z,99.90
2022-08-18T15:37:38.258Z,99.90
2022-08-18T15:40:41.267Z,99.90
2022-08-18T15:43:31.538Z,99.90
2022-08-18T15:46:18.290Z,99.90
2022-08-18T15:49:09.572Z,99.90
2022-08-18T15:51:59.698Z,99.90
2022-08-18T15:54:51.045Z,99.90
2022-08-18T15:57:40.287Z,99.90
2022-08-18T16:00:29.714Z,99.90
2022-08-18T16:03:17.627Z,99.90
2022-08-18T16:06:04.229Z,99.90
2022-08-18T16:08:53.051Z,99.90
2022-08-18T16:11:41.418Z,99.90
2022-08-18T16:14:30.229Z,99.90
2022-08-18T16:17:23.607Z,99.90
2022-08-18T16:20:11.400Z,99.90
2022-08-18T16:22:58.707Z,99.90
2022-08-18T16:25:45.027Z,99.90
2022-08-18T16:28:34.632Z,99.90
2022-08-18T16:31:29.319Z,99.90
2022-08-18T16:34:15.870Z,99.90
2022-08-18T16:37:02.478Z,99.90
2022-08-18T16:39:49.050Z,99.90
2022-08-18T16:42:35.931Z,99.90
2022-08-18T16:45:22.566Z,99.90
2022-08-18T16:48:13.291Z,99.90
2022-08-18T16:51:01.908Z,99.90
2022-08-18T16:53:49.520Z,99.90
2022-08-18T16:56:37.512Z,99.90
2022-08-18T16:59:41.303Z,99.90
2022-08-18T17:02:45.597Z,99.90
2022-08-18T17:05:33.945Z,99.90
2022-08-18T17:08:20.446Z,99.90
2022-08-18T17:11:09.782Z,99.90
2022-08-18T17:13:58.060Z,99.90
2022-08-18T17:16:46.181Z,99.90
2022-08-18T17:19:35.355Z,99.90
2022-08-18T17:22:23.784Z,99.90
2022-08-18T17:25:14.509Z,99.90
2022-08-18T17:28:06.169Z,99.90
2022-08-18T17:30:56.785Z,99.90
2022-08-18T17:33:46.033Z,99.90
2022-08-18T17:36:37.277Z,99.90
2022-08-18T17:39:33.745Z,99.90
2022-08-18T17:42:29.123Z,99.90
2022-08-18T17:45:21.711Z,99.90
2022-08-18T17:48:14.334Z,99.90
2022-08-18T17:51:22.425Z,99.90
2022-08-18T17:54:18.105Z,99.90
2022-08-18T17:57:09.849Z,99.90
2022-08-18T18:05:45.131Z,99.90
2022-08-18T18:08:55.418Z,99.90
2022-08-18T18:11:47.057Z,99.90
2022-08-18T18:14:39.495Z,99.90
2022-08-18T18:17:28.353Z,99.90
2022-08-18T18:20:24.819Z,99.90
2022-08-18T18:23:17.976Z,99.90
2022-08-18T18:26:28.305Z,99.90
2022-08-18T18:29:19.108Z,99.90
2022-08-18T18:32:23.404Z,99.90
2022-08-18T18:35:16.886Z,99.90
2022-08-18T18:38:06.478Z,99.90
2022-08-18T18:41:00.062Z,99.90
2022-08-18T18:43:48.958Z,99.90
2022-08-18T18:46:41.249Z,99.90
2022-08-18T18:49:38.378Z,99.90
2022-08-18T18:52:37.062Z,99.90
2022-08-18T18:55:25.676Z,99.90
2022-08-18T18:58:22.697Z,99.90
2022-08-18T19:01:17.301Z,99.90
2022-08-18T19:04:08.790Z,99.90
2022-08-18T19:07:00.790Z,99.90
2022-08-18T19:09:52.363Z,99.90
2022-08-18T19:12:46.518Z,99.90
2022-08-18T19:15:38.337Z,99.90
2022-08-18T19:18:29.145Z,99.90
2022-08-18T19:22:02.120Z,99.90
2022-08-18T19:24:31.157Z,99.90
2022-08-18T19:27:26.270Z,99.90
2022-08-18T19:30:16.967Z,99.90
2022-08-18T19:33:06.433Z,99.90
2022-08-18T19:35:59.397Z,99.90
2022-08-18T19:38:55.105Z,99.90
2022-08-18T19:41:48.001Z,99.90
2022-08-18T19:44:47.380Z,99.90
2022-08-18T19:47:52.090Z,99.90
2022-08-18T19:50:44.290Z,99.90
2022-08-18T19:53:52.617Z,99.90
2022-08-18T19:56:57.186Z,99.90
2022-08-18T20:00:05.633Z,99.90
2022-08-18T20:03:18.477Z,99.90
2022-08-18T20:06:34.561Z,99.90
2022-08-18T20:09:40.768Z,99.90
2022-08-18T20:12:56.600Z,99.90
2022-08-18T20:16:10.706Z,99.90
2022-08-18T20:18:57.859Z,99.90
2022-08-18T20:21:47.718Z,99.90
2022-08-18T20:24:46.315Z,99.90
2022-08-18T20:27:36.942Z,99.90
2022-08-18T20:30:28.159Z,99.90
2022-08-18T20:33:20.084Z,99.90
2022-08-18T20:36:17.534Z,99.90
2022-08-18T20:39:43.985Z,99.90
2022-08-18T20:42:57.538Z,99.90
2022-08-18T20:46:06.760Z,99.90
2022-08-18T20:49:13.158Z,99.90
2022-08-18T20:52:06.488Z,99.90
2022-08-18T20:55:10.780Z,99.90
2022-08-18T20:58:05.445Z,99.90
2022-08-18T21:00:58.164Z,99.90
2022-08-18T21:03:46.637Z,99.90
2022-08-18T21:06:37.625Z,99.90
2022-08-18T21:15:10.553Z,99.90
2022-08-18T21:18:01.540Z,99.90
2022-08-18T21:20:48.207Z,99.90
2022-08-18T21:23:37.516Z,99.90
2022-08-18T21:26:25.903Z,99.90
2022-08-18T21:29:14.288Z,99.90
2022-08-18T21:32:12.022Z,99.90
2022-08-18T21:35:01.878Z,99.90
2022-08-18T21:37:56.313Z,99.90
2022-08-18T21:40:46.498Z,99.90
2022-08-18T21:43:48.855Z,99.90
2022-08-18T21:46:36.010Z,99.90
2022-08-18T21:49:26.694Z,99.90
2022-08-18T21:52:24.040Z,99.90
2022-08-18T21:55:22.298Z,99.90
2022-08-18T21:58:19.397Z,99.90
2022-08-18T22:01:24.238Z,99.90
2022-08-18T22:04:24.224Z,99.90
2022-08-18T22:07:22.025Z,99.90
2022-08-18T22:10:44.423Z,99.90
2022-08-18T22:13:48.781Z,99.90
2022-08-18T22:16:37.383Z,99.90
2022-08-18T22:19:26.597Z,99.90
2022-08-18T22:22:37.306Z,99.90
2022-08-18T22:25:24.519Z,99.90
2022-08-18T22:28:11.064Z,99.90
2022-08-18T22:30:59.329Z,99.90
2022-08-18T22:33:46.328Z,99.90
2022-08-18T22:36:37.217Z,99.90
2022-08-18T22:39:29.342Z,99.90
2022-08-18T22:42:17.056Z,99.90
2022-08-18T22:45:08.443Z,99.90
2022-08-18T22:47:57.339Z,99.90
2022-08-18T22:50:43.985Z,99.90
2022-08-18T22:53:30.565Z,99.90
2022-08-18T22:56:23.750Z,99.90
2022-08-18T22:59:21.079Z,99.90
2022-08-18T23:02:07.731Z,99.90
2022-08-18T23:04:54.225Z,99.90
2022-08-18T23:07:40.537Z,99.90
2022-08-18T23:10:27.202Z,99.90
2022-08-18T23:13:16.627Z,99.90
2022-08-18T23:16:30.187Z,99.90
2022-08-18T23:19:09.053Z,99.90
2022-08-18T23:21:55.971Z,99.90
2022-08-18T23:24:42.549Z,99.90
2022-08-18T23:27:28.818Z,99.90
2022-08-18T23:30:16.550Z,99.90
2022-08-18T23:33:03.488Z,99.90
2022-08-18T23:35:50.393Z,99.90
2022-08-18T23:38:38.258Z,99.90
2022-08-18T23:41:25.271Z,99.90
2022-08-18T23:44:13.702Z,99.90
2022-08-18T23:47:03.254Z,99.90
2022-08-18T23:49:49.846Z,99.90
2022-08-18T23:52:36.223Z,99.90
2022-08-18T23:55:22.794Z,99.90
2022-08-18T23:58:09.483Z,99.90
